createdAt,value
2023-03-19T00:03:07.257Z,100968.98
2023-03-19T00:06:35.036Z,100967.06
2023-03-19T00:10:03.076Z,100967.61
2023-03-19T00:13:30.920Z,100969.90
2023-03-19T00:16:58.893Z,100965.80
2023-03-19T00:20:08.609Z,100968.29
2023-03-19T00:23:36.333Z,100963.62
2023-03-19T00:27:04.308Z,100964.70
2023-03-19T00:30:32.301Z,100965.51
2023-03-19T00:34:00.213Z,100965.58
2023-03-19T00:37:28.200Z,100966.09
2023-03-19T00:40:56.351Z,100969.20
2023-03-19T00:44:24.337Z,100960.08
2023-03-19T00:47:52.047Z,100951.80
2023-03-19T00:51:00.924Z,100953.87
2023-03-19T00:54:29.204Z,100949.55
2023-03-19T00:57:57.388Z,100950.08
2023-03-19T01:01:25.344Z,100945.40
2023-03-19T01:04:52.978Z,100944.10
2023-03-19T01:08:20.908Z,100940.45
2023-03-19T01:11:29.795Z,100934.92
2023-03-19T01:14:37.752Z,100933.05
2023-03-19T01:17:27.421Z,100930.71
2023-03-19T01:20:55.298Z,100926.84
2023-03-19T01:24:26.188Z,100928.20
2023-03-19T01:27:54.213Z,100928.57
2023-03-19T01:31:22.230Z,100926.98
2023-03-19T01:35:01.931Z,100925.85
2023-03-19T01:38:09.866Z,100921.02
2023-03-19T01:41:37.663Z,100922.84
2023-03-19T01:44:45.488Z,100921.92
2023-03-19T01:48:25.655Z,100914.71
2023-03-19T01:51:54.013Z,100912.85
2023-03-19T01:55:24.774Z,100912.13
2023-03-19T01:58:58.900Z,100916.77
2023-03-19T02:02:26.688Z,100923.41
2023-03-19T02:06:06.448Z,100921.47
2023-03-19T02:09:34.470Z,100920.52
2023-03-19T02:12:43.248Z,100922.11
2023-03-19T02:16:11.185Z,100927.02
2023-03-19T02:19:39.211Z,100921.45
2023-03-19T02:23:07.197Z,100929.73
2023-03-19T02:25:56.717Z,100927.00
2023-03-19T02:29:05.653Z,100923.54
2023-03-19T02:32:33.614Z,100922.13
2023-03-19T02:36:01.556Z,100919.28
2023-03-19T02:39:11.832Z,100924.59
2023-03-19T02:42:39.776Z,100931.80
2023-03-19T02:45:48.902Z,100919.85
2023-03-19T02:49:17.052Z,100910.92
2023-03-19T02:52:44.992Z,100912.95
2023-03-19T02:56:12.943Z,100914.02
2023-03-19T02:59:40.697Z,100923.89
2023-03-19T03:02:48.734Z,100915.63
2023-03-19T03:06:16.601Z,100923.58
2023-03-19T03:09:44.826Z,100923.52
2023-03-19T03:13:12.661Z,100923.54
2023-03-19T03:16:40.663Z,100925.28
2023-03-19T03:20:08.713Z,100929.17
2023-03-19T03:23:17.101Z,100932.98
2023-03-19T03:26:26.005Z,100936.58
2023-03-19T03:29:53.942Z,100933.67
2023-03-19T03:33:21.597Z,100931.76
2023-03-19T03:36:49.733Z,100935.52
2023-03-19T03:40:17.765Z,100930.55
2023-03-19T03:43:46.581Z,100927.73
2023-03-19T03:46:36.032Z,100922.77
2023-03-19T03:50:04.014Z,100914.52
2023-03-19T03:53:32.012Z,100906.27
2023-03-19T03:56:39.987Z,100905.47
2023-03-19T04:00:08.132Z,100905.11
2023-03-19T04:03:36.120Z,100903.23
2023-03-19T04:07:03.865Z,100903.38
2023-03-19T04:10:35.119Z,100905.34
2023-03-19T04:14:02.904Z,100897.70
2023-03-19T04:17:11.290Z,100883.05
2023-03-19T04:20:39.806Z,100882.81
2023-03-19T04:23:48.013Z,100881.19
2023-03-19T04:27:16.284Z,100880.53
2023-03-19T04:30:44.363Z,100880.38
2023-03-19T04:34:12.205Z,100879.25
2023-03-19T04:37:21.357Z,100878.15
2023-03-19T04:40:49.310Z,100882.83
2023-03-19T04:44:17.376Z,100886.68
2023-03-19T04:47:26.164Z,100889.91
2023-03-19T04:50:54.110Z,100892.94
2023-03-19T04:53:46.099Z,100895.65
2023-03-19T04:57:14.420Z,100891.35
2023-03-19T05:00:42.481Z,100892.66
2023-03-19T05:04:09.165Z,100895.45
2023-03-19T05:07:37.090Z,100902.21
2023-03-19T05:11:05.032Z,100902.73
2023-03-19T05:14:41.913Z,100898.48
2023-03-19T05:18:08.654Z,100899.73
2023-03-19T05:21:36.822Z,100890.62
2023-03-19T05:25:04.772Z,100882.80
2023-03-19T05:28:32.736Z,100878.80
2023-03-19T05:32:00.762Z,100871.98
2023-03-19T05:35:28.790Z,100868.55
2023-03-19T05:38:59.721Z,100867.32
2023-03-19T05:42:27.578Z,100873.40
2023-03-19T05:45:55.333Z,100879.66
2023-03-19T05:49:04.731Z,100885.04
2023-03-19T05:51:33.494Z,100889.79
2023-03-19T05:54:42.536Z,100889.04
2023-03-19T05:58:13.579Z,100887.44
2023-03-19T06:01:41.546Z,100882.33
2023-03-19T06:05:09.564Z,100886.86
2023-03-19T06:08:19.490Z,100891.56
2023-03-19T06:11:33.213Z,100892.83
2023-03-19T06:14:38.274Z,100895.19
2023-03-19T06:18:06.105Z,100901.23
2023-03-19T06:21:15.054Z,100901.13
2023-03-19T06:24:42.988Z,100897.03
2023-03-19T06:28:11.086Z,100896.77
2023-03-19T06:31:38.855Z,100901.55
2023-03-19T06:35:12.806Z,100895.98
2023-03-19T06:38:40.652Z,100894.46
2023-03-19T06:42:08.643Z,100899.84
2023-03-19T06:45:17.189Z,100904.45
2023-03-19T06:48:45.522Z,100905.75
2023-03-19T06:51:53.566Z,100907.17
2023-03-19T06:55:21.580Z,100909.20
2023-03-19T06:58:49.624Z,100919.72
2023-03-19T07:01:41.636Z,100926.80
2023-03-19T07:04:50.694Z,100930.90
2023-03-19T07:07:20.565Z,100927.20
2023-03-19T07:10:48.713Z,100925.81
2023-03-19T07:14:16.767Z,100928.30
2023-03-19T07:17:25.805Z,100926.65
2023-03-19T07:20:34.655Z,100927.41
2023-03-19T07:24:02.691Z,100927.52
2023-03-19T07:27:30.454Z,100924.22
2023-03-19T07:30:58.521Z,100924.06
2023-03-19T07:34:08.699Z,100925.60
2023-03-19T07:36:56.885Z,100926.79
2023-03-19T07:40:24.803Z,100926.77
2023-03-19T07:43:52.819Z,100928.98
2023-03-19T07:47:28.873Z,100925.90
2023-03-19T07:50:48.770Z,100930.66
2023-03-19T07:53:57.722Z,100929.72
2023-03-19T07:57:05.687Z,100933.70
2023-03-19T07:59:55.354Z,100936.95
2023-03-19T08:03:23.291Z,100937.31
2023-03-19T08:06:32.194Z,100935.45
2023-03-19T08:09:40.742Z,100934.04
2023-03-19T08:12:49.950Z,100931.83
2023-03-19T08:16:17.934Z,100932.23
2023-03-19T08:19:45.958Z,100929.98
2023-03-19T08:23:14.062Z,100929.36
2023-03-19T08:26:42.398Z,100926.30
2023-03-19T08:29:31.474Z,100927.67
2023-03-19T08:32:39.530Z,100931.63
2023-03-19T08:35:08.355Z,100925.66
2023-03-19T08:38:36.352Z,100931.20
2023-03-19T08:41:45.715Z,100919.02
2023-03-19T08:45:14.021Z,100923.70
2023-03-19T08:48:42.048Z,100916.55
2023-03-19T08:52:10.052Z,100906.34
2023-03-19T08:54:59.636Z,100909.02
2023-03-19T08:58:27.735Z,100908.62
2023-03-19T09:01:56.222Z,100907.22
2023-03-19T09:04:44.920Z,100907.56
2023-03-19T09:08:12.926Z,100904.63
2023-03-19T09:11:40.983Z,100906.00
2023-03-19T09:14:50.167Z,100902.77
2023-03-19T09:17:59.186Z,100901.58
2023-03-19T09:21:27.203Z,100901.98
2023-03-19T09:24:55.075Z,100902.54
2023-03-19T09:28:23.061Z,100908.60
2023-03-19T09:31:35.281Z,100912.88
2023-03-19T09:35:03.379Z,100911.45
2023-03-19T09:38:31.704Z,100911.70
2023-03-19T09:41:05.506Z,100912.85
2023-03-19T09:44:14.404Z,100914.71
2023-03-19T09:47:42.590Z,100913.73
2023-03-19T09:50:52.336Z,100907.40
2023-03-19T09:54:02.042Z,100896.40
2023-03-19T09:57:30.254Z,100888.34
2023-03-19T10:00:00.047Z,100883.64
2023-03-19T10:02:48.727Z,100883.23
2023-03-19T10:05:33.109Z,100881.27
2023-03-19T10:09:00.304Z,100877.41
2023-03-19T10:12:10.474Z,100872.82
2023-03-19T10:15:35.611Z,100866.02
2023-03-19T10:18:40.898Z,100857.39
2023-03-19T10:21:09.830Z,100861.36
2023-03-19T10:23:37.823Z,100860.54
2023-03-19T10:26:06.248Z,100864.13
2023-03-19T10:28:55.137Z,100859.35
2023-03-19T10:31:43.270Z,100861.52
2023-03-19T10:34:32.397Z,100862.65
2023-03-19T10:37:26.613Z,100851.19
2023-03-19T10:40:54.871Z,100847.10
2023-03-19T10:43:27.060Z,100838.64
2023-03-19T10:46:17.080Z,100830.98
2023-03-19T10:49:45.092Z,100813.38
2023-03-19T10:53:13.432Z,100824.48
2023-03-19T10:56:41.711Z,100809.61
2023-03-19T10:59:52.002Z,100808.79
2023-03-19T11:03:00.845Z,100809.55
2023-03-19T11:06:28.788Z,100807.55
2023-03-19T11:09:56.729Z,100800.64
2023-03-19T11:13:24.834Z,100797.42
2023-03-19T11:16:52.883Z,100790.52
2023-03-19T11:20:01.142Z,100785.19
2023-03-19T11:22:49.242Z,100788.86
2023-03-19T11:25:20.434Z,100786.48
2023-03-19T11:28:28.833Z,100787.08
2023-03-19T11:31:57.403Z,100777.44
2023-03-19T11:35:05.991Z,100769.45
2023-03-19T11:38:15.873Z,100764.99
2023-03-19T11:41:05.496Z,100764.08
2023-03-19T11:44:33.540Z,100762.61
2023-03-19T11:47:02.924Z,100756.73
2023-03-19T11:49:32.031Z,100753.48
2023-03-19T11:52:59.991Z,100753.48
2023-03-19T11:55:49.510Z,100752.84
2023-03-19T11:58:57.585Z,100749.49
2023-03-19T12:02:25.616Z,100739.33
2023-03-19T12:05:13.877Z,100737.83
2023-03-19T12:08:23.632Z,100739.56
2023-03-19T12:11:34.234Z,100737.74
2023-03-19T12:14:42.291Z,100731.60
2023-03-19T12:18:10.386Z,100734.14
2023-03-19T12:21:38.382Z,100725.64
2023-03-19T12:24:46.649Z,100723.52
2023-03-19T12:27:55.190Z,100721.67
2023-03-19T12:31:03.395Z,100718.45
2023-03-19T12:33:47.690Z,100711.41
2023-03-19T12:36:17.647Z,100710.74
2023-03-19T12:39:47.951Z,100709.87
2023-03-19T12:42:16.423Z,100705.52
2023-03-19T12:44:48.722Z,100704.84
2023-03-19T12:48:16.800Z,100697.04
2023-03-19T12:51:05.459Z,100698.70
2023-03-19T12:53:34.566Z,100694.77
2023-03-19T12:56:04.233Z,100689.51
2023-03-19T12:59:32.262Z,100683.45
2023-03-19T13:02:02.617Z,100683.23
2023-03-19T13:04:31.376Z,100678.48
2023-03-19T13:07:00.155Z,100676.15
2023-03-19T13:09:48.132Z,100672.69
2023-03-19T13:12:38.307Z,100665.15
2023-03-19T13:15:26.389Z,100664.80
2023-03-19T13:17:54.947Z,100657.63
2023-03-19T13:20:23.711Z,100654.41
2023-03-19T13:22:55.465Z,100654.34
2023-03-19T13:26:03.524Z,100655.08
2023-03-19T13:28:53.572Z,100658.07
2023-03-19T13:32:01.784Z,100657.69
2023-03-19T13:34:50.428Z,100653.66
2023-03-19T13:37:58.675Z,100650.77
2023-03-19T13:40:27.121Z,100649.05
2023-03-19T13:43:55.005Z,100647.58
2023-03-19T13:46:24.076Z,100645.02
2023-03-19T13:48:54.515Z,100644.81
2023-03-19T13:52:17.790Z,100638.64
2023-03-19T13:55:08.183Z,100635.17
2023-03-19T13:57:38.789Z,100627.92
2023-03-19T14:00:47.371Z,100632.15
2023-03-19T14:03:54.368Z,100633.84
2023-03-19T14:07:18.804Z,100627.45
2023-03-19T14:10:27.520Z,100622.96
2023-03-19T14:13:16.006Z,100621.02
2023-03-19T14:16:44.329Z,100614.67
2023-03-19T14:19:52.961Z,100605.11
2023-03-19T14:23:01.836Z,100604.58
2023-03-19T14:25:30.726Z,100598.02
2023-03-19T14:28:39.979Z,100596.66
2023-03-19T14:31:48.462Z,100592.94
2023-03-19T14:34:58.309Z,100593.14
2023-03-19T14:37:46.545Z,100590.02
2023-03-19T14:40:34.959Z,100593.45
2023-03-19T14:43:09.528Z,100586.48
2023-03-19T14:45:57.713Z,100592.91
2023-03-19T14:48:26.959Z,100594.52
2023-03-19T14:51:23.228Z,100588.70
2023-03-19T14:53:57.451Z,100586.31
2023-03-19T14:56:47.182Z,100582.19
2023-03-19T14:59:17.401Z,100582.36
2023-03-19T15:01:45.687Z,100577.22
2023-03-19T15:04:14.014Z,100573.95
2023-03-19T15:07:22.175Z,100572.13
2023-03-19T15:10:32.202Z,100574.98
2023-03-19T15:13:16.205Z,100570.51
2023-03-19T15:16:28.327Z,100567.38
2023-03-19T15:19:14.065Z,100567.58
2023-03-19T15:21:48.689Z,100567.58
2023-03-19T15:24:18.600Z,100568.57
2023-03-19T15:27:47.079Z,100574.90
2023-03-19T15:31:14.481Z,100567.76
2023-03-19T15:33:53.403Z,100573.86
2023-03-19T15:36:49.400Z,100572.45
2023-03-19T15:39:37.978Z,100577.06
2023-03-19T15:42:47.187Z,100580.49
2023-03-19T15:45:56.439Z,100582.75
2023-03-19T15:49:06.059Z,100585.59
2023-03-19T15:52:22.248Z,100587.76
2023-03-19T15:55:08.161Z,100582.38
2023-03-19T15:58:20.416Z,100585.02
2023-03-19T16:01:44.240Z,100588.66
2023-03-19T16:05:21.801Z,100589.56
2023-03-19T16:08:40.416Z,100591.71
2023-03-19T16:11:34.304Z,100595.83
2023-03-19T16:14:46.137Z,100599.83
2023-03-19T16:17:37.256Z,100601.20
2023-03-19T16:20:25.589Z,100602.86
2023-03-19T16:23:00.346Z,100599.91
2023-03-19T16:26:05.189Z,100598.30
2023-03-19T16:29:14.378Z,100600.85
2023-03-19T16:32:23.904Z,100600.25
2023-03-19T16:35:14.544Z,100604.92
2023-03-19T16:38:21.778Z,100608.14
2023-03-19T16:41:31.683Z,100607.73
2023-03-19T16:44:43.990Z,100600.09
2023-03-19T16:47:43.987Z,100604.29
2023-03-19T16:50:54.042Z,100606.20
2023-03-19T16:54:04.033Z,100613.03
2023-03-19T16:56:59.920Z,100616.30
2023-03-19T17:00:00.826Z,100616.66
2023-03-19T17:03:28.823Z,100619.38
2023-03-19T17:06:37.074Z,100619.69
2023-03-19T17:10:05.515Z,100622.73
2023-03-19T17:13:13.756Z,100620.28
2023-03-19T17:16:42.575Z,100628.63
2023-03-19T17:19:59.196Z,100627.88
2023-03-19T17:23:08.797Z,100620.28
2023-03-19T17:26:36.838Z,100619.70
2023-03-19T17:30:01.210Z,100617.61
2023-03-19T17:32:54.293Z,100623.48
2023-03-19T17:36:04.732Z,100624.83
2023-03-19T17:39:14.078Z,100622.95
2023-03-19T17:42:42.355Z,100626.26
2023-03-19T17:46:05.780Z,100632.52
2023-03-19T17:49:33.937Z,100631.96
2023-03-19T17:53:01.990Z,100635.52
2023-03-19T17:56:30.359Z,100636.39
2023-03-19T17:59:34.157Z,100642.16
2023-03-19T18:03:02.453Z,100640.53
2023-03-19T18:06:30.724Z,100644.29
2023-03-19T18:09:59.170Z,100646.29
2023-03-19T18:12:28.473Z,100652.18
2023-03-19T18:15:17.474Z,100652.31
2023-03-19T18:18:45.529Z,100652.17
2023-03-19T18:22:13.798Z,100658.45
2023-03-19T18:25:42.267Z,100660.67
2023-03-19T18:29:10.402Z,100661.29
2023-03-19T18:32:18.705Z,100662.12
2023-03-19T18:35:47.172Z,100656.97
2023-03-19T18:39:17.915Z,100655.64
2023-03-19T18:42:26.952Z,100662.13
2023-03-19T18:45:43.343Z,100664.21
2023-03-19T18:49:11.239Z,100660.26
2023-03-19T18:52:28.307Z,100658.53
2023-03-19T18:55:56.205Z,100658.17
2023-03-19T18:59:24.231Z,100661.19
2023-03-19T19:02:52.392Z,100663.14
2023-03-19T19:06:21.294Z,100663.69
2023-03-19T19:09:45.207Z,100662.48
2023-03-19T19:12:53.699Z,100663.08
2023-03-19T19:16:02.841Z,100665.77
2023-03-19T19:19:30.882Z,100672.19
2023-03-19T19:22:58.761Z,100671.60
2023-03-19T19:26:26.787Z,100668.31
2023-03-19T19:29:55.018Z,100672.71
2023-03-19T19:33:24.386Z,100668.55
2023-03-19T19:36:53.112Z,100665.25
2023-03-19T19:40:21.374Z,100662.08
2023-03-19T19:43:49.365Z,100654.88
2023-03-19T19:47:17.680Z,100653.50
2023-03-19T19:50:45.813Z,100659.83
2023-03-19T19:54:13.882Z,100662.66
2023-03-19T19:57:42.083Z,100660.90
2023-03-19T20:01:10.371Z,100662.25
2023-03-19T20:04:18.665Z,100666.28
2023-03-19T20:07:46.816Z,100667.34
2023-03-19T20:11:15.198Z,100664.45
2023-03-19T20:14:43.562Z,100668.54
2023-03-19T20:18:11.541Z,100668.30
2023-03-19T20:21:40.257Z,100665.38
2023-03-19T20:25:08.412Z,100667.27
2023-03-19T20:28:36.919Z,100668.81
2023-03-19T20:31:29.338Z,100673.61
2023-03-19T20:34:57.357Z,100672.98
2023-03-19T20:38:25.403Z,100674.62
2023-03-19T20:41:53.819Z,100674.99
2023-03-19T20:45:02.378Z,100678.96
2023-03-19T20:48:30.630Z,100685.09
2023-03-19T20:51:58.971Z,100685.61
2023-03-19T20:55:27.118Z,100688.61
2023-03-19T20:58:55.790Z,100687.98
2023-03-19T21:02:23.943Z,100692.34
2023-03-19T21:05:51.945Z,100695.05
2023-03-19T21:09:20.095Z,100687.64
2023-03-19T21:12:48.355Z,100687.00
2023-03-19T21:15:39.415Z,100687.56
2023-03-19T21:19:07.489Z,100684.10
2023-03-19T21:22:35.477Z,100680.12
2023-03-19T21:25:51.396Z,100680.18
2023-03-19T21:29:19.355Z,100680.98
2023-03-19T21:32:47.527Z,100678.53
2023-03-19T21:36:15.624Z,100679.66
2023-03-19T21:39:43.680Z,100679.16
2023-03-19T21:43:11.634Z,100681.86
2023-03-19T21:46:40.600Z,100682.46
2023-03-19T21:50:08.549Z,100676.44
2023-03-19T21:53:36.639Z,100680.61
2023-03-19T21:57:04.714Z,100682.99
2023-03-19T22:00:32.793Z,100680.64
2023-03-19T22:03:56.867Z,100682.30
2023-03-19T22:07:24.846Z,100683.49
2023-03-19T22:10:33.374Z,100685.02
2023-03-19T22:14:01.340Z,100687.73
2023-03-19T22:17:29.467Z,100681.42
2023-03-19T22:20:39.632Z,100681.23
2023-03-19T22:24:07.509Z,100676.72
2023-03-19T22:27:36.030Z,100676.52
2023-03-19T22:31:04.102Z,100673.96
2023-03-19T22:34:32.293Z,100674.55
2023-03-19T22:38:00.298Z,100669.56
2023-03-19T22:41:10.391Z,100671.83
2023-03-19T22:44:38.918Z,100667.69
2023-03-19T22:47:27.872Z,100665.41
2023-03-19T22:50:44.535Z,100658.42
2023-03-19T22:54:12.511Z,100656.06
2023-03-19T22:57:36.734Z,100652.79
2023-03-19T23:01:04.873Z,100649.96
2023-03-19T23:04:02.853Z,100644.56
2023-03-19T23:07:30.777Z,100641.48
2023-03-19T23:10:59.127Z,100633.52
2023-03-19T23:14:30.262Z,100633.08
2023-03-19T23:17:55.595Z,100631.72
2023-03-19T23:21:24.103Z,100633.28
2023-03-19T23:24:36.088Z,100631.81
2023-03-19T23:28:04.143Z,100639.15
2023-03-19T23:31:32.325Z,100633.47
2023-03-19T23:35:01.858Z,100635.04
2023-03-19T23:38:29.536Z,100629.18
2023-03-19T23:41:57.723Z,100625.95
2023-03-19T23:45:25.736Z,100626.79
2023-03-19T23:48:53.780Z,100625.58
2023-03-19T23:52:21.811Z,100627.99
2023-03-19T23:55:49.724Z,100631.08
2023-03-19T23:59:17.953Z,100632.13
